sensor_id;sensor_type;location;lat;lon;timestamp;temperature;humidity
29031;DHT22;16122;50.236;11.734;2022-12-05T00:01:42;14.10;78.30
29031;DHT22;16122;50.236;11.734;2022-12-05T00:04:11;14.10;78.00
29031;DHT22;16122;50.236;11.734;2022-12-05T00:06:38;14.10;71.80
29031;DHT22;16122;50.236;11.734;2022-12-05T00:09:07;14.10;71.00
29031;DHT22;16122;50.236;11.734;2022-12-05T00:11:36;14.00;69.10
29031;DHT22;16122;50.236;11.734;2022-12-05T00:14:03;14.10;68.50
29031;DHT22;16122;50.236;11.734;2022-12-05T00:16:31;14.10;68.50
29031;DHT22;16122;50.236;11.734;2022-12-05T00:19:00;14.10;68.50
29031;DHT22;16122;50.236;11.734;2022-12-05T00:21:31;14.10;68.50
29031;DHT22;16122;50.236;11.734;2022-12-05T00:23:58;14.10;68.30
29031;DHT22;16122;50.236;11.734;2022-12-05T00:26:25;14.10;68.20
29031;DHT22;16122;50.236;11.734;2022-12-05T00:28:52;14.10;68.10
29031;DHT22;16122;50.236;11.734;2022-12-05T00:31:20;14.20;68.20
29031;DHT22;16122;50.236;11.734;2022-12-05T00:33:46;14.10;68.00
29031;DHT22;16122;50.236;11.734;2022-12-05T00:36:19;14.10;67.90
29031;DHT22;16122;50.236;11.734;2022-12-05T00:38:46;14.10;67.70
29031;DHT22;16122;50.236;11.734;2022-12-05T00:41:17;14.10;67.60
29031;DHT22;16122;50.236;11.734;2022-12-05T00:43:43;14.10;67.80
29031;DHT22;16122;50.236;11.734;2022-12-05T00:46:12;14.10;67.80
29031;DHT22;16122;50.236;11.734;2022-12-05T00:48:39;14.20;68.00
29031;DHT22;16122;50.236;11.734;2022-12-05T00:51:07;14.20;68.00
29031;DHT22;16122;50.236;11.734;2022-12-05T00:53:33;14.10;68.10
29031;DHT22;16122;50.236;11.734;2022-12-05T00:56:03;14.10;68.00
29031;DHT22;16122;50.236;11.734;2022-12-05T00:58:30;14.10;68.10
29031;DHT22;16122;50.236;11.734;2022-12-05T01:01:03;14.20;68.30
29031;DHT22;16122;50.236;11.734;2022-12-05T01:03:29;14.10;68.60
29031;DHT22;16122;50.236;11.734;2022-12-05T01:05:58;14.10;68.70
29031;DHT22;16122;50.236;11.734;2022-12-05T01:08:24;14.10;68.80
29031;DHT22;16122;50.236;11.734;2022-12-05T01:10:56;14.10;68.80
29031;DHT22;16122;50.236;11.734;2022-12-05T01:13:22;14.10;68.90
29031;DHT22;16122;50.236;11.734;2022-12-05T01:15:49;14.10;69.10
29031;DHT22;16122;50.236;11.734;2022-12-05T01:18:15;14.10;69.00
29031;DHT22;16122;50.236;11.734;2022-12-05T01:20:41;14.10;69.10
29031;DHT22;16122;50.236;11.734;2022-12-05T01:23:07;14.10;69.20
29031;DHT22;16122;50.236;11.734;2022-12-05T01:25:33;13.90;69.00
29031;DHT22;16122;50.236;11.734;2022-12-05T01:27:59;14.10;69.20
29031;DHT22;16122;50.236;11.734;2022-12-05T01:30:25;14.10;69.20
29031;DHT22;16122;50.236;11.734;2022-12-05T01:32:51;14.10;69.10
29031;DHT22;16122;50.236;11.734;2022-12-05T01:35:17;14.10;69.20
29031;DHT22;16122;50.236;11.734;2022-12-05T01:37:43;14.10;69.10
29031;DHT22;16122;50.236;11.734;2022-12-05T01:40:09;14.10;68.90
29031;DHT22;16122;50.236;11.734;2022-12-05T01:42:35;14.10;68.90
29031;DHT22;16122;50.236;11.734;2022-12-05T01:45:05;14.10;68.70
29031;DHT22;16122;50.236;11.734;2022-12-05T01:47:34;14.10;68.60
29031;DHT22;16122;50.236;11.734;2022-12-05T01:50:01;14.20;68.60
29031;DHT22;16122;50.236;11.734;2022-12-05T01:52:30;14.10;68.50
29031;DHT22;16122;50.236;11.734;2022-12-05T01:55:00;14.10;68.50
29031;DHT22;16122;50.236;11.734;2022-12-05T01:57:27;14.10;68.50
29031;DHT22;16122;50.236;11.734;2022-12-05T01:59:59;14.10;68.40
29031;DHT22;16122;50.236;11.734;2022-12-05T02:02:27;13.80;68.10
29031;DHT22;16122;50.236;11.734;2022-12-05T02:05:21;14.10;68.50
29031;DHT22;16122;50.236;11.734;2022-12-05T02:07:48;14.10;68.50
29031;DHT22;16122;50.236;11.734;2022-12-05T02:10:14;14.10;68.20
29031;DHT22;16122;50.236;11.734;2022-12-05T02:12:41;14.10;68.30
29031;DHT22;16122;50.236;11.734;2022-12-05T02:18:05;14.10;68.40
29031;DHT22;16122;50.236;11.734;2022-12-05T02:20:53;14.30;68.40
29031;DHT22;16122;50.236;11.734;2022-12-05T02:34:24;14.20;68.20
29031;DHT22;16122;50.236;11.734;2022-12-05T02:40:04;14.10;67.80
29031;DHT22;16122;50.236;11.734;2022-12-05T02:42:48;14.10;67.90
29031;DHT22;16122;50.236;11.734;2022-12-05T02:45:17;14.10;67.80
29031;DHT22;16122;50.236;11.734;2022-12-05T02:47:48;14.10;68.00
29031;DHT22;16122;50.236;11.734;2022-12-05T02:50:19;14.10;68.10
29031;DHT22;16122;50.236;11.734;2022-12-05T02:52:48;14.20;68.50
29031;DHT22;16122;50.236;11.734;2022-12-05T02:55:16;14.10;69.80
29031;DHT22;16122;50.236;11.734;2022-12-05T02:57:49;14.10;69.80
29031;DHT22;16122;50.236;11.734;2022-12-05T03:00:16;14.10;69.70
29031;DHT22;16122;50.236;11.734;2022-12-05T03:02:42;14.10;69.90
29031;DHT22;16122;50.236;11.734;2022-12-05T03:07:59;14.20;72.50
29031;DHT22;16122;50.236;11.734;2022-12-05T03:10:29;14.20;74.30
29031;DHT22;16122;50.236;11.734;2022-12-05T03:13:04;14.10;77.10
29031;DHT22;16122;50.236;11.734;2022-12-05T03:15:38;14.20;72.10
29031;DHT22;16122;50.236;11.734;2022-12-05T03:18:30;14.20;69.90
29031;DHT22;16122;50.236;11.734;2022-12-05T03:20:58;14.10;67.30
29031;DHT22;16122;50.236;11.734;2022-12-05T03:23:32;14.10;67.00
29031;DHT22;16122;50.236;11.734;2022-12-05T03:26:12;14.10;67.10
29031;DHT22;16122;50.236;11.734;2022-12-05T03:31:21;14.10;66.90
29031;DHT22;16122;50.236;11.734;2022-12-05T03:33:49;14.10;66.80
29031;DHT22;16122;50.236;11.734;2022-12-05T03:36:28;14.10;66.90
29031;DHT22;16122;50.236;11.734;2022-12-05T03:39:04;14.10;66.90
29031;DHT22;16122;50.236;11.734;2022-12-05T03:41:50;14.10;66.90
29031;DHT22;16122;50.236;11.734;2022-12-05T03:44:59;14.10;67.00
29031;DHT22;16122;50.236;11.734;2022-12-05T03:50:22;14.10;66.90
29031;DHT22;16122;50.236;11.734;2022-12-05T03:53:14;14.10;67.00
29031;DHT22;16122;50.236;11.734;2022-12-05T03:55:41;14.10;67.00
29031;DHT22;16122;50.236;11.734;2022-12-05T03:58:14;14.10;67.00
29031;DHT22;16122;50.236;11.734;2022-12-05T04:00:44;14.10;67.00
29031;DHT22;16122;50.236;11.734;2022-12-05T04:03:22;14.10;67.00
29031;DHT22;16122;50.236;11.734;2022-12-05T04:05:58;14.10;67.00
29031;DHT22;16122;50.236;11.734;2022-12-05T04:08:32;14.10;66.90
29031;DHT22;16122;50.236;11.734;2022-12-05T04:11:10;14.10;66.90
29031;DHT22;16122;50.236;11.734;2022-12-05T04:14:04;14.30;67.10
29031;DHT22;16122;50.236;11.734;2022-12-05T04:16:40;14.10;66.90
29031;DHT22;16122;50.236;11.734;2022-12-05T04:22:15;14.10;66.90
29031;DHT22;16122;50.236;11.734;2022-12-05T04:24:40;14.10;66.80
29031;DHT22;16122;50.236;11.734;2022-12-05T04:30:24;14.10;66.80
29031;DHT22;16122;50.236;11.734;2022-12-05T04:33:07;14.20;67.00
29031;DHT22;16122;50.236;11.734;2022-12-05T04:35:51;14.10;66.90
29031;DHT22;16122;50.236;11.734;2022-12-05T04:38:36;14.20;67.10
29031;DHT22;16122;50.236;11.734;2022-12-05T04:41:08;14.20;67.70
29031;DHT22;16122;50.236;11.734;2022-12-05T04:43:38;14.20;68.20
29031;DHT22;16122;50.236;11.734;2022-12-05T04:46:08;14.30;69.00
29031;DHT22;16122;50.236;11.734;2022-12-05T04:48:37;14.20;69.70
29031;DHT22;16122;50.236;11.734;2022-12-05T04:51:06;14.20;71.30
29031;DHT22;16122;50.236;11.734;2022-12-05T04:53:33;14.20;73.40
29031;DHT22;16122;50.236;11.734;2022-12-05T04:56:01;14.20;76.20
29031;DHT22;16122;50.236;11.734;2022-12-05T04:58:29;14.10;72.40
29031;DHT22;16122;50.236;11.734;2022-12-05T05:01:18;14.10;70.50
29031;DHT22;16122;50.236;11.734;2022-12-05T05:03:58;14.10;70.40
29031;DHT22;16122;50.236;11.734;2022-12-05T05:06:26;14.10;72.30
29031;DHT22;16122;50.236;11.734;2022-12-05T05:08:55;14.10;74.70
29031;DHT22;16122;50.236;11.734;2022-12-05T05:11:26;14.20;75.00
29031;DHT22;16122;50.236;11.734;2022-12-05T05:13:53;14.20;73.20
29031;DHT22;16122;50.236;11.734;2022-12-05T05:16:22;14.10;71.90
29031;DHT22;16122;50.236;11.734;2022-12-05T05:18:49;14.20;70.60
29031;DHT22;16122;50.236;11.734;2022-12-05T05:21:24;14.20;71.50
29031;DHT22;16122;50.236;11.734;2022-12-05T05:23:50;14.20;73.60
29031;DHT22;16122;50.236;11.734;2022-12-05T05:26:16;14.30;74.40
29031;DHT22;16122;50.236;11.734;2022-12-05T05:28:43;14.30;75.80
29031;DHT22;16122;50.236;11.734;2022-12-05T05:33:37;14.20;68.40
29031;DHT22;16122;50.236;11.734;2022-12-05T05:36:10;14.20;69.30
29031;DHT22;16122;50.236;11.734;2022-12-05T05:38:39;14.10;69.00
29031;DHT22;16122;50.236;11.734;2022-12-05T05:41:05;14.10;69.10
29031;DHT22;16122;50.236;11.734;2022-12-05T05:43:31;14.10;69.10
29031;DHT22;16122;50.236;11.734;2022-12-05T05:45:57;14.10;69.00
29031;DHT22;16122;50.236;11.734;2022-12-05T05:48:23;14.10;69.00
29031;DHT22;16122;50.236;11.734;2022-12-05T05:50:49;14.10;68.90
29031;DHT22;16122;50.236;11.734;2022-12-05T05:53:15;14.20;68.90
29031;DHT22;16122;50.236;11.734;2022-12-05T05:55:41;14.10;68.70
29031;DHT22;16122;50.236;11.734;2022-12-05T05:58:07;14.10;68.70
29031;DHT22;16122;50.236;11.734;2022-12-05T06:00:33;14.10;68.60
29031;DHT22;16122;50.236;11.734;2022-12-05T06:03:00;14.10;68.50
29031;DHT22;16122;50.236;11.734;2022-12-05T06:05:25;14.10;68.40
29031;DHT22;16122;50.236;11.734;2022-12-05T06:07:52;14.10;68.20
29031;DHT22;16122;50.236;11.734;2022-12-05T06:10:18;14.10;68.10
29031;DHT22;16122;50.236;11.734;2022-12-05T06:12:44;14.10;68.10
29031;DHT22;16122;50.236;11.734;2022-12-05T06:15:10;14.10;68.10
29031;DHT22;16122;50.236;11.734;2022-12-05T06:17:36;14.20;68.00
29031;DHT22;16122;50.236;11.734;2022-12-05T06:20:04;14.20;67.90
29031;DHT22;16122;50.236;11.734;2022-12-05T06:22:30;14.20;67.80
29031;DHT22;16122;50.236;11.734;2022-12-05T06:24:55;14.20;67.70
29031;DHT22;16122;50.236;11.734;2022-12-05T06:27:21;14.20;67.50
29031;DHT22;16122;50.236;11.734;2022-12-05T06:29:47;14.20;67.40
29031;DHT22;16122;50.236;11.734;2022-12-05T06:32:13;14.20;67.30
29031;DHT22;16122;50.236;11.734;2022-12-05T06:34:39;14.20;67.30
29031;DHT22;16122;50.236;11.734;2022-12-05T06:37:04;14.20;67.20
29031;DHT22;16122;50.236;11.734;2022-12-05T06:39:30;14.20;67.10
29031;DHT22;16122;50.236;11.734;2022-12-05T06:41:56;14.20;67.10
29031;DHT22;16122;50.236;11.734;2022-12-05T06:44:22;14.20;66.90
29031;DHT22;16122;50.236;11.734;2022-12-05T06:46:52;14.20;66.90
29031;DHT22;16122;50.236;11.734;2022-12-05T06:49:18;14.20;66.90
29031;DHT22;16122;50.236;11.734;2022-12-05T06:51:44;14.20;66.80
29031;DHT22;16122;50.236;11.734;2022-12-05T06:54:13;14.20;66.70
29031;DHT22;16122;50.236;11.734;2022-12-05T06:56:39;14.20;66.70
29031;DHT22;16122;50.236;11.734;2022-12-05T06:59:05;14.20;66.70
29031;DHT22;16122;50.236;11.734;2022-12-05T07:01:31;14.20;66.70
29031;DHT22;16122;50.236;11.734;2022-12-05T07:04:13;14.20;66.50
29031;DHT22;16122;50.236;11.734;2022-12-05T07:06:41;14.20;66.50
29031;DHT22;16122;50.236;11.734;2022-12-05T07:09:07;14.20;66.50
29031;DHT22;16122;50.236;11.734;2022-12-05T07:11:33;14.20;66.40
29031;DHT22;16122;50.236;11.734;2022-12-05T07:14:00;14.20;66.50
29031;DHT22;16122;50.236;11.734;2022-12-05T07:16:25;14.20;66.40
29031;DHT22;16122;50.236;11.734;2022-12-05T07:18:51;14.20;66.50
29031;DHT22;16122;50.236;11.734;2022-12-05T07:21:17;14.20;66.30
29031;DHT22;16122;50.236;11.734;2022-12-05T07:23:46;14.20;66.30
29031;DHT22;16122;50.236;11.734;2022-12-05T07:26:14;14.20;66.20
29031;DHT22;16122;50.236;11.734;2022-12-05T07:28:40;14.20;66.20
29031;DHT22;16122;50.236;11.734;2022-12-05T07:31:08;14.20;66.00
29031;DHT22;16122;50.236;11.734;2022-12-05T07:33:35;14.20;65.90
29031;DHT22;16122;50.236;11.734;2022-12-05T07:36:04;14.20;65.80
29031;DHT22;16122;50.236;11.734;2022-12-05T07:38:30;14.20;65.80
29031;DHT22;16122;50.236;11.734;2022-12-05T07:40:56;14.20;65.80
29031;DHT22;16122;50.236;11.734;2022-12-05T07:43:23;14.20;65.90
29031;DHT22;16122;50.236;11.734;2022-12-05T07:46:02;14.20;65.90
29031;DHT22;16122;50.236;11.734;2022-12-05T07:48:28;14.20;65.80
29031;DHT22;16122;50.236;11.734;2022-12-05T07:50:59;14.20;65.70
29031;DHT22;16122;50.236;11.734;2022-12-05T07:53:25;14.20;65.70
29031;DHT22;16122;50.236;11.734;2022-12-05T07:55:51;14.20;65.70
29031;DHT22;16122;50.236;11.734;2022-12-05T07:58:17;14.20;65.60
29031;DHT22;16122;50.236;11.734;2022-12-05T08:00:43;14.20;65.60
29031;DHT22;16122;50.236;11.734;2022-12-05T08:03:09;14.20;65.40
29031;DHT22;16122;50.236;11.734;2022-12-05T08:05:34;14.20;65.30
29031;DHT22;16122;50.236;11.734;2022-12-05T08:08:00;14.30;65.40
29031;DHT22;16122;50.236;11.734;2022-12-05T08:10:26;14.20;65.20
29031;DHT22;16122;50.236;11.734;2022-12-05T08:12:52;14.20;65.10
29031;DHT22;16122;50.236;11.734;2022-12-05T08:15:17;14.30;65.30
29031;DHT22;16122;50.236;11.734;2022-12-05T08:17:43;14.20;65.10
29031;DHT22;16122;50.236;11.734;2022-12-05T08:20:10;14.20;65.10
29031;DHT22;16122;50.236;11.734;2022-12-05T08:22:35;14.20;65.10
29031;DHT22;16122;50.236;11.734;2022-12-05T08:25:01;14.20;65.20
29031;DHT22;16122;50.236;11.734;2022-12-05T08:27:27;14.20;65.10
29031;DHT22;16122;50.236;11.734;2022-12-05T08:29:53;14.30;65.30
29031;DHT22;16122;50.236;11.734;2022-12-05T08:32:19;14.30;65.20
29031;DHT22;16122;50.236;11.734;2022-12-05T08:34:45;14.30;65.20
29031;DHT22;16122;50.236;11.734;2022-12-05T08:37:11;14.20;65.10
29031;DHT22;16122;50.236;11.734;2022-12-05T08:39:37;14.30;65.20
29031;DHT22;16122;50.236;11.734;2022-12-05T08:42:02;14.20;65.10
29031;DHT22;16122;50.236;11.734;2022-12-05T08:44:28;14.20;65.50
29031;DHT22;16122;50.236;11.734;2022-12-05T08:46:55;14.20;65.50
29031;DHT22;16122;50.236;11.734;2022-12-05T08:49:20;14.20;65.50
29031;DHT22;16122;50.236;11.734;2022-12-05T08:51:47;14.20;65.60
29031;DHT22;16122;50.236;11.734;2022-12-05T08:54:14;14.20;65.50
29031;DHT22;16122;50.236;11.734;2022-12-05T08:56:41;14.20;65.60
29031;DHT22;16122;50.236;11.734;2022-12-05T08:59:07;14.20;65.60
29031;DHT22;16122;50.236;11.734;2022-12-05T09:01:33;14.20;65.40
29031;DHT22;16122;50.236;11.734;2022-12-05T09:04:03;14.20;65.40
29031;DHT22;16122;50.236;11.734;2022-12-05T09:06:30;14.20;65.60
29031;DHT22;16122;50.236;11.734;2022-12-05T09:08:58;14.20;65.60
29031;DHT22;16122;50.236;11.734;2022-12-05T09:11:27;14.20;65.70
29031;DHT22;16122;50.236;11.734;2022-12-05T09:13:54;14.20;65.70
29031;DHT22;16122;50.236;11.734;2022-12-05T09:16:23;14.20;65.70
29031;DHT22;16122;50.236;11.734;2022-12-05T09:18:51;14.20;65.90
29031;DHT22;16122;50.236;11.734;2022-12-05T09:21:22;14.20;65.90
29031;DHT22;16122;50.236;11.734;2022-12-05T09:23:49;14.20;65.80
29031;DHT22;16122;50.236;11.734;2022-12-05T09:26:17;14.20;65.90
29031;DHT22;16122;50.236;11.734;2022-12-05T09:28:43;14.20;65.70
29031;DHT22;16122;50.236;11.734;2022-12-05T09:31:12;14.20;65.90
29031;DHT22;16122;50.236;11.734;2022-12-05T09:33:39;14.20;66.00
29031;DHT22;16122;50.236;11.734;2022-12-05T09:36:07;14.20;66.00
29031;DHT22;16122;50.236;11.734;2022-12-05T09:38:34;14.20;65.90
29031;DHT22;16122;50.236;11.734;2022-12-05T09:44:02;14.20;66.00
29031;DHT22;16122;50.236;11.734;2022-12-05T09:47:15;14.20;66.10
29031;DHT22;16122;50.236;11.734;2022-12-05T09:52:35;14.20;65.90
29031;DHT22;16122;50.236;11.734;2022-12-05T09:55:10;14.20;65.90
29031;DHT22;16122;50.236;11.734;2022-12-05T09:57:41;14.20;65.90
29031;DHT22;16122;50.236;11.734;2022-12-05T10:00:09;14.20;65.90
29031;DHT22;16122;50.236;11.734;2022-12-05T10:11:04;14.20;65.80
29031;DHT22;16122;50.236;11.734;2022-12-05T10:13:50;14.20;65.50
29031;DHT22;16122;50.236;11.734;2022-12-05T10:16:30;14.20;65.20
29031;DHT22;16122;50.236;11.734;2022-12-05T10:19:01;14.20;65.30
29031;DHT22;16122;50.236;11.734;2022-12-05T10:21:45;14.20;65.30
29031;DHT22;16122;50.236;11.734;2022-12-05T10:24:17;14.20;65.20
29031;DHT22;16122;50.236;11.734;2022-12-05T10:26:52;14.20;65.20
29031;DHT22;16122;50.236;11.734;2022-12-05T10:29:30;14.20;65.20
29031;DHT22;16122;50.236;11.734;2022-12-05T10:34:44;14.20;65.70
29031;DHT22;16122;50.236;11.734;2022-12-05T10:37:21;14.20;64.80
29031;DHT22;16122;50.236;11.734;2022-12-05T10:39:49;14.20;64.80
29031;DHT22;16122;50.236;11.734;2022-12-05T10:42:24;14.20;64.70
29031;DHT22;16122;50.236;11.734;2022-12-05T10:44:56;14.20;64.70
29031;DHT22;16122;50.236;11.734;2022-12-05T10:47:23;14.20;64.60
29031;DHT22;16122;50.236;11.734;2022-12-05T10:49:49;14.20;64.70
29031;DHT22;16122;50.236;11.734;2022-12-05T10:52:16;14.20;64.60
29031;DHT22;16122;50.236;11.734;2022-12-05T10:54:46;14.20;64.70
29031;DHT22;16122;50.236;11.734;2022-12-05T10:57:24;14.20;64.80
29031;DHT22;16122;50.236;11.734;2022-12-05T10:59:51;14.20;64.70
29031;DHT22;16122;50.236;11.734;2022-12-05T11:02:35;14.20;64.70
29031;DHT22;16122;50.236;11.734;2022-12-05T11:05:02;14.20;64.80
29031;DHT22;16122;50.236;11.734;2022-12-05T11:07:31;14.20;65.00
29031;DHT22;16122;50.236;11.734;2022-12-05T11:09:59;14.20;65.10
29031;DHT22;16122;50.236;11.734;2022-12-05T11:12:36;14.20;65.10
29031;DHT22;16122;50.236;11.734;2022-12-05T11:15:17;14.20;65.40
29031;DHT22;16122;50.236;11.734;2022-12-05T11:17:46;14.20;65.60
29031;DHT22;16122;50.236;11.734;2022-12-05T11:22:52;14.20;65.90
29031;DHT22;16122;50.236;11.734;2022-12-05T11:27:58;14.10;65.70
29031;DHT22;16122;50.236;11.734;2022-12-05T11:30:26;14.10;65.90
29031;DHT22;16122;50.236;11.734;2022-12-05T11:33:19;14.10;66.00
29031;DHT22;16122;50.236;11.734;2022-12-05T11:35:50;14.10;66.20
29031;DHT22;16122;50.236;11.734;2022-12-05T11:38:18;14.10;66.20
29031;DHT22;16122;50.236;11.734;2022-12-05T11:40:52;14.20;66.40
29031;DHT22;16122;50.236;11.734;2022-12-05T11:46:33;14.20;66.20
29031;DHT22;16122;50.236;11.734;2022-12-05T11:49:21;14.10;66.00
29031;DHT22;16122;50.236;11.734;2022-12-05T11:51:54;14.10;65.90
29031;DHT22;16122;50.236;11.734;2022-12-05T12:00:40;14.10;65.60
29031;DHT22;16122;50.236;11.734;2022-12-05T12:05:29;14.10;65.60
29031;DHT22;16122;50.236;11.734;2022-12-05T12:08:07;14.10;65.50
29031;DHT22;16122;50.236;11.734;2022-12-05T12:11:23;14.10;65.50
29031;DHT22;16122;50.236;11.734;2022-12-05T12:16:22;14.10;65.30
29031;DHT22;16122;50.236;11.734;2022-12-05T12:26:59;14.10;65.00
29031;DHT22;16122;50.236;11.734;2022-12-05T12:38:36;14.10;64.90
29031;DHT22;16122;50.236;11.734;2022-12-05T12:41:11;14.00;64.90
29031;DHT22;16122;50.236;11.734;2022-12-05T12:52:25;14.00;64.70
29031;DHT22;16122;50.236;11.734;2022-12-05T12:58:01;14.00;64.90
29031;DHT22;16122;50.236;11.734;2022-12-05T13:03:40;14.00;64.90
29031;DHT22;16122;50.236;11.734;2022-12-05T13:09:48;14.00;65.00
29031;DHT22;16122;50.236;11.734;2022-12-05T13:12:18;14.00;65.10
29031;DHT22;16122;50.236;11.734;2022-12-05T13:14:59;14.00;65.00
29031;DHT22;16122;50.236;11.734;2022-12-05T13:17:25;14.00;64.90
29031;DHT22;16122;50.236;11.734;2022-12-05T13:19:53;14.00;64.90
29031;DHT22;16122;50.236;11.734;2022-12-05T13:22:22;14.00;64.90
29031;DHT22;16122;50.236;11.734;2022-12-05T13:24:53;14.00;64.80
29031;DHT22;16122;50.236;11.734;2022-12-05T13:27:24;14.00;64.90
29031;DHT22;16122;50.236;11.734;2022-12-05T13:30:00;14.00;64.80
29031;DHT22;16122;50.236;11.734;2022-12-05T13:34:54;14.00;64.70
29031;DHT22;16122;50.236;11.734;2022-12-05T13:37:30;14.00;64.70
29031;DHT22;16122;50.236;11.734;2022-12-05T13:40:29;14.00;64.70
29031;DHT22;16122;50.236;11.734;2022-12-05T13:43:17;14.00;64.60
29031;DHT22;16122;50.236;11.734;2022-12-05T13:48:31;14.00;64.50
29031;DHT22;16122;50.236;11.734;2022-12-05T13:51:05;14.00;64.50
29031;DHT22;16122;50.236;11.734;2022-12-05T13:56:27;14.00;64.40
29031;DHT22;16122;50.236;11.734;2022-12-05T14:09:50;14.00;64.30
29031;DHT22;16122;50.236;11.734;2022-12-05T14:18:11;14.00;64.30
29031;DHT22;16122;50.236;11.734;2022-12-05T14:21:02;14.00;64.40
29031;DHT22;16122;50.236;11.734;2022-12-05T14:24:11;14.00;64.10
29031;DHT22;16122;50.236;11.734;2022-12-05T14:26:58;14.00;64.20
29031;DHT22;16122;50.236;11.734;2022-12-05T14:32:36;14.00;64.20
29031;DHT22;16122;50.236;11.734;2022-12-05T14:37:49;14.00;64.10
29031;DHT22;16122;50.236;11.734;2022-12-05T14:42:58;14.00;64.10
29031;DHT22;16122;50.236;11.734;2022-12-05T14:45:37;14.10;64.20
29031;DHT22;16122;50.236;11.734;2022-12-05T15:00:56;14.10;64.10
29031;DHT22;16122;50.236;11.734;2022-12-05T15:03:30;14.10;64.10
29031;DHT22;16122;50.236;11.734;2022-12-05T15:05:58;14.10;64.00
29031;DHT22;16122;50.236;11.734;2022-12-05T15:08:29;14.10;64.10
29031;DHT22;16122;50.236;11.734;2022-12-05T15:10:57;14.10;64.00
29031;DHT22;16122;50.236;11.734;2022-12-05T15:13:25;14.10;63.90
29031;DHT22;16122;50.236;11.734;2022-12-05T15:16:14;14.10;63.90
29031;DHT22;16122;50.236;11.734;2022-12-05T15:18:46;14.10;63.90
29031;DHT22;16122;50.236;11.734;2022-12-05T15:22:06;14.10;63.90
29031;DHT22;16122;50.236;11.734;2022-12-05T15:24:25;14.10;63.80
29031;DHT22;16122;50.236;11.734;2022-12-05T15:26:54;14.10;63.90
29031;DHT22;16122;50.236;11.734;2022-12-05T15:31:54;14.10;64.00
29031;DHT22;16122;50.236;11.734;2022-12-05T15:42:40;14.10;64.10
29031;DHT22;16122;50.236;11.734;2022-12-05T15:47:47;14.10;64.20
29031;DHT22;16122;50.236;11.734;2022-12-05T15:53:16;14.10;64.20
29031;DHT22;16122;50.236;11.734;2022-12-05T15:55:47;14.10;64.30
29031;DHT22;16122;50.236;11.734;2022-12-05T16:01:08;14.20;64.10
29031;DHT22;16122;50.236;11.734;2022-12-05T16:06:31;14.10;63.60
29031;DHT22;16122;50.236;11.734;2022-12-05T16:09:03;14.10;63.80
29031;DHT22;16122;50.236;11.734;2022-12-05T16:11:29;14.10;63.80
29031;DHT22;16122;50.236;11.734;2022-12-05T16:13:59;14.20;64.70
29031;DHT22;16122;50.236;11.734;2022-12-05T16:16:28;14.20;65.20
29031;DHT22;16122;50.236;11.734;2022-12-05T16:18:58;14.20;66.30
29031;DHT22;16122;50.236;11.734;2022-12-05T16:22:15;14.20;67.20
29031;DHT22;16122;50.236;11.734;2022-12-05T16:27:23;14.20;67.70
29031;DHT22;16122;50.236;11.734;2022-12-05T16:32:37;14.20;68.10
29031;DHT22;16122;50.236;11.734;2022-12-05T16:35:21;14.20;68.30
29031;DHT22;16122;50.236;11.734;2022-12-05T16:40:33;14.20;68.50
29031;DHT22;16122;50.236;11.734;2022-12-05T16:43:04;14.20;68.80
29031;DHT22;16122;50.236;11.734;2022-12-05T16:45:39;14.20;69.00
29031;DHT22;16122;50.236;11.734;2022-12-05T16:53:44;14.20;69.10
29031;DHT22;16122;50.236;11.734;2022-12-05T16:56:30;14.20;69.10
29031;DHT22;16122;50.236;11.734;2022-12-05T16:59:00;14.20;69.00
29031;DHT22;16122;50.236;11.734;2022-12-05T17:01:27;14.20;69.00
29031;DHT22;16122;50.236;11.734;2022-12-05T17:03:54;14.20;69.10
29031;DHT22;16122;50.236;11.734;2022-12-05T17:06:22;14.20;69.30
29031;DHT22;16122;50.236;11.734;2022-12-05T17:08:49;14.20;69.70
29031;DHT22;16122;50.236;11.734;2022-12-05T17:11:24;14.20;69.70
29031;DHT22;16122;50.236;11.734;2022-12-05T17:13:51;14.20;69.80
29031;DHT22;16122;50.236;11.734;2022-12-05T17:16:19;14.20;69.80
29031;DHT22;16122;50.236;11.734;2022-12-05T17:18:45;14.20;69.90
29031;DHT22;16122;50.236;11.734;2022-12-05T17:21:16;14.30;70.20
29031;DHT22;16122;50.236;11.734;2022-12-05T17:23:43;14.20;70.10
29031;DHT22;16122;50.236;11.734;2022-12-05T17:26:12;14.20;70.00
29031;DHT22;16122;50.236;11.734;2022-12-05T17:28:38;14.20;70.00
29031;DHT22;16122;50.236;11.734;2022-12-05T17:31:05;14.20;70.10
29031;DHT22;16122;50.236;11.734;2022-12-05T17:33:31;14.20;70.00
29031;DHT22;16122;50.236;11.734;2022-12-05T17:35:56;14.20;70.00
29031;DHT22;16122;50.236;11.734;2022-12-05T17:38:22;14.20;69.90
29031;DHT22;16122;50.236;11.734;2022-12-05T17:40:49;14.20;70.10
29031;DHT22;16122;50.236;11.734;2022-12-05T17:43:15;14.20;70.20
29031;DHT22;16122;50.236;11.734;2022-12-05T17:45:42;14.20;70.10
29031;DHT22;16122;50.236;11.734;2022-12-05T17:48:12;14.20;70.10
29031;DHT22;16122;50.236;11.734;2022-12-05T17:50:44;14.20;69.90
29031;DHT22;16122;50.236;11.734;2022-12-05T17:53:18;14.20;69.80
29031;DHT22;16122;50.236;11.734;2022-12-05T17:55:44;14.20;69.80
29031;DHT22;16122;50.236;11.734;2022-12-05T17:58:13;14.20;69.70
29031;DHT22;16122;50.236;11.734;2022-12-05T18:00:41;14.20;69.80
29031;DHT22;16122;50.236;11.734;2022-12-05T18:03:12;14.20;69.70
29031;DHT22;16122;50.236;11.734;2022-12-05T18:05:38;14.20;69.60
29031;DHT22;16122;50.236;11.734;2022-12-05T18:08:04;14.20;69.70
29031;DHT22;16122;50.236;11.734;2022-12-05T18:10:30;14.20;69.50
29031;DHT22;16122;50.236;11.734;2022-12-05T18:12:56;14.20;70.30
29031;DHT22;16122;50.236;11.734;2022-12-05T18:15:22;14.20;69.40
29031;DHT22;16122;50.236;11.734;2022-12-05T18:17:48;14.20;70.30
29031;DHT22;16122;50.236;11.734;2022-12-05T18:20:15;14.20;69.40
29031;DHT22;16122;50.236;11.734;2022-12-05T18:22:41;14.20;69.40
29031;DHT22;16122;50.236;11.734;2022-12-05T18:25:07;14.30;69.40
29031;DHT22;16122;50.236;11.734;2022-12-05T18:27:34;14.20;69.30
29031;DHT22;16122;50.236;11.734;2022-12-05T18:30:01;14.20;69.10
29031;DHT22;16122;50.236;11.734;2022-12-05T18:32:28;14.20;69.10
29031;DHT22;16122;50.236;11.734;2022-12-05T18:34:54;14.20;69.00
29031;DHT22;16122;50.236;11.734;2022-12-05T18:37:24;14.20;68.90
29031;DHT22;16122;50.236;11.734;2022-12-05T18:39:50;14.20;68.90
29031;DHT22;16122;50.236;11.734;2022-12-05T18:42:16;14.20;68.70
29031;DHT22;16122;50.236;11.734;2022-12-05T18:44:42;14.20;68.70